11:28
Airports
Links
Donate
Help keep this website running!
PayPal
Bitcoin
METAR
EDVK 111120Z 08008KT 5000 BR BKN009 01/01 Q0982
Current Weather Conditions at EDVK
IFR 11:20:00 11-12-17
Altimeter:29.00 hg
Temp:1.0°c 34°f
Dew point:1.0°c 34°f
Wind:8 knots, 9.2 mph, 4 m/s, from 80°
Visibility:3.11 statute miles
900(BKN) Broken
Past METAR reports
MVFR 10:50:00 11-12-17
Altimeter:29.00 hg
Temp:0.0°c 32°f
Dew point:0.0°c 32°f
Wind:8 knots, 9.2 mph, 4 m/s, from 80°
Visibility:4.97 statute miles
1400(BKN) Broken
EDVK 111050Z 08008KT 8000 3300W BR BKN014 00/00 Q0982
MVFR 10:20:00 11-12-17
Altimeter:29.06 hg
Temp:0.0°c 32°f
Dew point:0.0°c 32°f
Wind:6 knots, 6.9 mph, 3 m/s, from 90°
Visibility:4.35 statute miles
1300(BKN) Broken
EDVK 111020Z 09006KT 7000 3300W BR BKN013 00/00 Q0984
MVFR 09:50:00 11-12-17
Altimeter:29.06 hg
Temp:0.0°c 32°f
Dew point:0.0°c 32°f
Wind:2 knots, 2.3 mph, 1 m/s, from 60°
Visibility:4.35 statute miles
1600(BKN) Broken
EDVK 110950Z 06002KT 7000 3300W BKN016 00/00 Q0984
MVFR 09:20:00 11-12-17
Altimeter:29.06 hg
Temp:0.0°c 32°f
Dew point:0.0°c 32°f
Wind:3 knots, 3.5 mph, 2 m/s, from 50°
Visibility:5.59 statute miles
1700(BKN) Broken
EDVK 110920Z 05003KT 9000 4400W -SN BKN017 M00/M00 Q0984
MVFR 08:50:00 11-12-17
Altimeter:29.06 hg
Temp:0.0°c 32°f
Dew point:-1.0°c 30°f
Wind:3 knots, 3.5 mph, 2 m/s, from 80°
Visibility:6.21 statute miles
2200(OVC) Overcast
1600(SCT) Scattered
EDVK 110850Z 08003KT 9999 SCT016 OVC022 M00/M01 Q0984
MVFR 08:20:00 11-12-17
Altimeter:29.08 hg
Temp:0.0°c 32°f
Dew point:-1.0°c 30°f
Wind:2 knots, 2.3 mph, 1 m/s, from 100°
Visibility:6.21 statute miles
3000(BKN) Broken
2000(SCT) Scattered
EDVK 110820Z 10002KT 9999 SCT020 BKN030 M00/M01 Q0985
TAF
TAF EDVK 110800Z 1109/1118 09005KT 9999 BKN020 BECMG 1109/1112 4000 RASN BKN010 TEMPO 1112/1115 BKN008 BECMG 1115/1117 17010KT 9999 NSW SCT015
Forecast at EDVK
09:00 11-12-17 to 18:00 11-12-17
Wind:5 Knots from 90°
Visibility:6.21 statute miles
2000BKN Broken
BECMG 09:00 11-12-17 to 15:00 11-12-17
RA SN
Wind:5 Knots from 90°
Visibility:2.49 statute miles
1000BKN Broken
TEMPO 12:00 11-12-17 to 15:00 11-12-17
800BKN Broken
BECMG 15:00 11-12-17 to 18:00 11-12-17
NSW
Wind:10 Knots from 170°
Visibility:6.21 statute miles
1500SCT Scattered